Time;durP1;ratioP1;P1;durP2;ratioP2;P2;SDS_P1;SDS_P2;PMS_P1;PMS_P2;Temp;Humidity;BMP_temperature;BMP_pressure;BME280_temperature;BME280_humidity;BME280_pressure;Samples;Min_cycle;Max_cycle;Signal;HPM_P1;HPM_P2
2022/08/19 00:01:35;;;;;;;;;;;21.30;99.90;;;;;;5051318;28;19913;-54
2022/08/19 00:04:04;;;;;;;;;;;21.30;99.90;;;;;;5054884;28;20292;-54
2022/08/19 00:06:29;;;;;;;;;;;21.40;99.90;;;;;;5053619;28;20438;-53
2022/08/19 00:08:56;;;;;;;;;;;21.40;99.90;;;;;;5052410;28;19909;-54
2022/08/19 00:11:22;;;;;;;;;;;21.40;99.90;;;;;;5051854;28;20423;-51
2022/08/19 00:13:49;;;;;;;;;;;21.40;99.90;;;;;;5053488;28;19948;-55
2022/08/19 00:16:19;;;;;;;;;;;21.50;99.90;;;;;;5053034;28;19917;-52
2022/08/19 00:18:44;;;;;;;;;;;21.30;99.90;;;;;;5053437;28;20347;-55
2022/08/19 00:21:10;;;;;;;;;;;21.30;99.90;;;;;;5053170;28;19924;-55
2022/08/19 00:23:36;;;;;;;;;;;21.40;99.90;;;;;;5053327;28;20383;-55
2022/08/19 00:26:02;;;;;;;;;;;21.40;99.90;;;;;;5051666;28;20367;-58
2022/08/19 00:28:28;;;;;;;;;;;21.40;99.90;;;;;;5053205;28;20448;-56
2022/08/19 00:30:54;;;;;;;;;;;21.40;99.90;;;;;;5051602;28;20001;-57
2022/08/19 00:33:19;;;;;;;;;;;21.30;99.90;;;;;;5032600;28;19936;-59
2022/08/19 00:35:45;;;;;;;;;;;21.30;99.90;;;;;;5039114;28;19916;-59
2022/08/19 00:38:10;;;;;;;;;;;21.10;99.90;;;;;;5051802;28;19928;-59
2022/08/19 00:40:36;;;;;;;;;;;21.20;99.90;;;;;;5053217;28;19917;-59
2022/08/19 00:43:07;;;;;;;;;;;21.10;99.90;;;;;;5052346;28;19913;-55
2022/08/19 00:45:32;;;;;;;;;;;21.20;99.90;;;;;;5052371;28;19915;-58
2022/08/19 00:47:58;;;;;;;;;;;21.30;99.90;;;;;;5052578;28;20011;-59
2022/08/19 00:50:24;;;;;;;;;;;21.20;99.90;;;;;;5052289;28;19913;-59
2022/08/19 00:52:50;;;;;;;;;;;21.20;99.90;;;;;;5052759;28;19909;-56
2022/08/19 00:55:18;;;;;;;;;;;21.20;99.90;;;;;;5052524;28;19917;-57
2022/08/19 00:57:47;;;;;;;;;;;21.30;99.90;;;;;;5052830;28;19917;-59
2022/08/19 01:00:14;;;;;;;;;;;21.30;99.90;;;;;;5052939;28;19916;-57
2022/08/19 01:02:41;;;;;;;;;;;21.30;99.90;;;;;;5052750;28;19916;-58
2022/08/19 01:05:09;;;;;;;;;;;21.40;99.90;;;;;;5052520;28;20054;-57
2022/08/19 01:07:36;;;;;;;;;;;21.40;99.90;;;;;;5052529;28;19912;-57
2022/08/19 01:10:02;;;;;;;;;;;21.50;99.90;;;;;;5052402;28;19913;-57
2022/08/19 01:12:28;;;;;;;;;;;21.50;99.90;;;;;;5051263;28;19913;-59
2022/08/19 01:14:55;;;;;;;;;;;21.50;99.90;;;;;;5052825;28;19917;-58
2022/08/19 01:17:20;;;;;;;;;;;21.50;99.90;;;;;;5051785;28;20012;-57
2022/08/19 01:19:46;;;;;;;;;;;21.40;99.90;;;;;;5052558;28;19968;-55
2022/08/19 01:22:16;;;;;;;;;;;21.40;99.90;;;;;;5052646;28;19958;-55
2022/08/19 01:24:42;;;;;;;;;;;21.20;99.90;;;;;;5052116;28;19912;-50
2022/08/19 01:27:07;;;;;;;;;;;21.30;99.90;;;;;;5052036;28;19913;-55
2022/08/19 01:29:34;;;;;;;;;;;21.10;99.90;;;;;;5052395;28;20011;-56
2022/08/19 01:32:00;;;;;;;;;;;21.10;99.90;;;;;;5052016;28;19961;-54
2022/08/19 01:34:26;;;;;;;;;;;21.00;99.90;;;;;;5052447;28;19920;-53
2022/08/19 01:36:52;;;;;;;;;;;20.90;99.90;;;;;;5050876;28;19913;-55
2022/08/19 01:39:20;;;;;;;;;;;20.90;99.90;;;;;;5052653;28;19912;-56
2022/08/19 01:41:46;;;;;;;;;;;20.90;99.90;;;;;;5052085;28;19909;-53
2022/08/19 01:44:11;;;;;;;;;;;20.60;99.90;;;;;;5051289;28;20583;-50
2022/08/19 01:46:37;;;;;;;;;;;20.70;99.90;;;;;;5051191;28;19912;-52
2022/08/19 01:49:04;;;;;;;;;;;20.50;99.90;;;;;;5052080;28;19916;-49
2022/08/19 01:51:30;;;;;;;;;;;20.40;99.90;;;;;;5051936;28;19935;-55
2022/08/19 01:53:55;;;;;;;;;;;20.50;99.90;;;;;;5052115;28;20292;-52
2022/08/19 01:56:21;;;;;;;;;;;20.40;99.90;;;;;;5051299;28;19912;-54
2022/08/19 01:59:01;;;;;;;;;;;20.50;99.90;;;;;;5051430;28;19971;-54
2022/08/19 02:01:27;;;;;;;;;;;20.50;99.90;;;;;;5051910;28;19939;-52
2022/08/19 02:03:53;;;;;;;;;;;20.40;99.90;;;;;;5051694;28;20724;-55
2022/08/19 02:06:19;;;;;;;;;;;20.40;99.90;;;;;;5051452;28;19923;-57
2022/08/19 02:08:45;;;;;;;;;;;20.50;99.90;;;;;;5051657;28;20003;-54
2022/08/19 02:11:17;;;;;;;;;;;20.50;99.90;;;;;;5051415;28;19913;-56
2022/08/19 02:13:43;;;;;;;;;;;20.50;99.90;;;;;;5051527;28;19915;-55
2022/08/19 02:16:09;;;;;;;;;;;20.60;99.90;;;;;;5050525;28;19917;-55
2022/08/19 02:18:35;;;;;;;;;;;20.60;99.90;;;;;;5050972;28;19920;-54
2022/08/19 02:21:00;;;;;;;;;;;20.70;99.90;;;;;;5051266;28;19967;-52
2022/08/19 02:23:26;;;;;;;;;;;20.60;99.90;;;;;;5052268;28;20267;-52
2022/08/19 02:25:52;;;;;;;;;;;20.70;99.90;;;;;;5054505;28;20008;-51
2022/08/19 02:28:17;;;;;;;;;;;20.70;99.90;;;;;;5053778;28;20004;-55
2022/08/19 02:30:43;;;;;;;;;;;20.60;99.90;;;;;;5053561;28;20400;-54
2022/08/19 02:33:09;;;;;;;;;;;20.70;99.90;;;;;;5054924;28;19915;-52
2022/08/19 02:35:34;;;;;;;;;;;20.60;99.90;;;;;;5055164;28;20253;-55
2022/08/19 02:40:52;;;;;;;;;;;20.80;99.90;;;;;;5055102;28;19912;-52
2022/08/19 02:43:20;;;;;;;;;;;20.70;99.90;;;;;;5054906;28;20284;-52
2022/08/19 02:45:45;;;;;;;;;;;20.80;99.90;;;;;;5054903;28;19981;-55
2022/08/19 02:48:11;;;;;;;;;;;20.70;99.90;;;;;;5054437;28;20556;-51
2022/08/19 02:50:38;;;;;;;;;;;20.60;99.90;;;;;;5054767;28;19970;-54
2022/08/19 02:53:03;;;;;;;;;;;20.70;99.90;;;;;;5053402;28;20402;-52
2022/08/19 02:55:29;;;;;;;;;;;20.70;99.90;;;;;;5053702;28;19974;-50
2022/08/19 02:57:54;;;;;;;;;;;20.70;99.90;;;;;;5054499;28;19996;-50
2022/08/19 03:00:20;;;;;;;;;;;20.70;99.90;;;;;;5053204;28;19925;-50
2022/08/19 03:02:46;;;;;;;;;;;20.70;99.90;;;;;;5054578;28;19913;-48
2022/08/19 03:05:12;;;;;;;;;;;20.60;99.90;;;;;;5053897;28;19919;-53
2022/08/19 03:07:38;;;;;;;;;;;20.60;99.90;;;;;;5054188;28;19955;-53
2022/08/19 03:10:04;;;;;;;;;;;20.60;99.90;;;;;;5056080;28;19920;-49
2022/08/19 03:12:30;;;;;;;;;;;20.50;99.90;;;;;;5056056;28;19913;-52
2022/08/19 03:14:55;;;;;;;;;;;20.50;99.90;;;;;;5056354;28;19916;-52
2022/08/19 03:17:21;;;;;;;;;;;20.60;99.90;;;;;;5053815;28;19966;-50
2022/08/19 03:19:46;;;;;;;;;;;20.70;99.90;;;;;;5054231;28;19924;-53
2022/08/19 03:22:12;;;;;;;;;;;20.70;99.90;;;;;;5054062;28;19996;-52
2022/08/19 03:24:38;;;;;;;;;;;20.60;99.90;;;;;;5053966;28;19913;-52
2022/08/19 03:27:04;;;;;;;;;;;20.60;99.90;;;;;;5053638;28;19913;-51
2022/08/19 03:29:33;;;;;;;;;;;20.70;99.90;;;;;;5053655;28;20357;-54
2022/08/19 03:32:00;;;;;;;;;;;20.70;99.90;;;;;;5054156;28;19913;-53
2022/08/19 03:34:27;;;;;;;;;;;20.70;99.90;;;;;;5053953;28;19913;-52
2022/08/19 03:36:54;;;;;;;;;;;20.80;99.90;;;;;;5053321;28;19952;-50
2022/08/19 03:39:20;;;;;;;;;;;20.80;99.90;;;;;;5054073;28;19920;-50
2022/08/19 03:41:46;;;;;;;;;;;20.80;99.90;;;;;;5054061;28;19909;-53
2022/08/19 03:44:13;;;;;;;;;;;20.80;99.90;;;;;;5049327;28;20289;-50
2022/08/19 03:46:39;;;;;;;;;;;20.80;99.90;;;;;;5053397;28;20553;-53
2022/08/19 03:49:07;;;;;;;;;;;20.70;99.90;;;;;;5053826;28;19958;-52
2022/08/19 03:51:37;;;;;;;;;;;20.90;99.90;;;;;;5053427;28;19917;-52
2022/08/19 03:54:04;;;;;;;;;;;20.80;99.90;;;;;;5053504;28;19917;-52
2022/08/19 03:56:30;;;;;;;;;;;20.90;99.90;;;;;;5051945;28;20011;-52
2022/08/19 03:58:56;;;;;;;;;;;20.80;99.90;;;;;;5053574;28;20012;-56
2022/08/19 04:01:23;;;;;;;;;;;20.90;99.90;;;;;;5053723;28;19917;-52
2022/08/19 04:03:49;;;;;;;;;;;20.90;99.90;;;;;;5052293;28;19913;-49
2022/08/19 04:06:20;;;;;;;;;;;20.90;99.90;;;;;;5053273;28;20054;-52
2022/08/19 04:08:46;;;;;;;;;;;20.80;99.90;;;;;;5059251;28;20455;-53
2022/08/19 04:11:14;;;;;;;;;;;20.80;99.90;;;;;;5054631;28;19919;-55
2022/08/19 04:13:40;;;;;;;;;;;20.80;99.90;;;;;;5053534;28;19913;-51
2022/08/19 04:16:06;;;;;;;;;;;20.80;99.90;;;;;;5053288;28;19909;-52
2022/08/19 04:18:32;;;;;;;;;;;20.90;99.90;;;;;;5052900;28;19939;-53
2022/08/19 04:20:59;;;;;;;;;;;20.90;99.90;;;;;;5051700;28;19939;-52
2022/08/19 04:23:24;;;;;;;;;;;21.00;99.90;;;;;;5053188;28;19944;-53
2022/08/19 04:25:50;;;;;;;;;;;21.00;99.90;;;;;;5053067;28;19952;-49
2022/08/19 04:28:15;;;;;;;;;;;20.80;99.90;;;;;;5052938;28;19912;-51
2022/08/19 04:30:48;;;;;;;;;;;20.70;99.90;;;;;;5053169;28;19913;-51
2022/08/19 04:33:15;;;;;;;;;;;20.60;99.90;;;;;;5051546;28;20323;-56
2022/08/19 04:35:43;;;;;;;;;;;20.60;99.90;;;;;;5052952;28;20015;-54
2022/08/19 04:38:08;;;;;;;;;;;20.50;99.90;;;;;;5051734;28;19948;-53
2022/08/19 04:43:22;;;;;;;;;;;20.30;99.90;;;;;;5033192;28;19913;-56
2022/08/19 04:45:48;;;;;;;;;;;20.30;99.90;;;;;;5051111;28;20000;-53
2022/08/19 04:48:14;;;;;;;;;;;20.50;99.90;;;;;;5051196;28;19935;-51
2022/08/19 04:50:40;;;;;;;;;;;20.50;99.90;;;;;;5053142;28;19955;-51
2022/08/19 04:53:06;;;;;;;;;;;20.40;99.90;;;;;;5053342;28;19916;-50
2022/08/19 04:55:32;;;;;;;;;;;20.40;99.90;;;;;;5052603;28;19921;-49
2022/08/19 04:57:57;;;;;;;;;;;20.40;99.90;;;;;;5053692;28;20380;-53
2022/08/19 05:00:23;;;;;;;;;;;20.50;99.90;;;;;;5053805;28;20438;-49
2022/08/19 05:02:48;;;;;;;;;;;20.50;99.90;;;;;;5054587;28;20007;-51
2022/08/19 05:05:14;;;;;;;;;;;20.30;99.90;;;;;;5051824;28;19921;-53
2022/08/19 05:07:40;;;;;;;;;;;20.30;99.90;;;;;;5053488;28;19912;-53
2022/08/19 05:10:06;;;;;;;;;;;20.40;99.90;;;;;;5052568;28;19913;-53
2022/08/19 05:12:32;;;;;;;;;;;20.40;99.90;;;;;;5052716;28;19916;-54
2022/08/19 05:14:58;;;;;;;;;;;20.30;99.90;;;;;;5052339;28;19916;-55
2022/08/19 05:17:24;;;;;;;;;;;20.20;99.90;;;;;;5051990;28;19935;-55
2022/08/19 05:22:35;;;;;;;;;;;20.40;99.90;;;;;;5052558;28;19923;-54
2022/08/19 05:25:03;;;;;;;;;;;20.40;99.90;;;;;;5034754;28;20433;-55
2022/08/19 05:27:28;;;;;;;;;;;20.30;99.90;;;;;;5067383;28;19909;-56
2022/08/19 05:29:54;;;;;;;;;;;20.30;99.90;;;;;;5045950;28;19928;-54
2022/08/19 05:32:21;;;;;;;;;;;20.20;99.90;;;;;;5032696;28;20543;-54
2022/08/19 05:34:46;;;;;;;;;;;20.20;99.90;;;;;;5038762;28;19925;-53
2022/08/19 05:37:12;;;;;;;;;;;20.20;99.90;;;;;;5051912;28;19917;-54
2022/08/19 05:39:38;;;;;;;;;;;20.10;99.90;;;;;;5050945;28;19920;-50
2022/08/19 05:42:08;;;;;;;;;;;20.20;99.90;;;;;;5051773;28;19924;-51
2022/08/19 05:44:36;;;;;;;;;;;20.20;99.90;;;;;;5051616;28;20011;-49
2022/08/19 05:47:04;;;;;;;;;;;20.30;99.90;;;;;;5052254;28;20367;-52
2022/08/19 05:49:30;;;;;;;;;;;20.20;99.90;;;;;;5051252;28;20000;-51
2022/08/19 05:51:56;;;;;;;;;;;20.20;99.90;;;;;;5051206;28;19975;-49
2022/08/19 05:54:22;;;;;;;;;;;20.20;99.90;;;;;;5058411;28;19986;-53
2022/08/19 05:56:49;;;;;;;;;;;20.20;99.90;;;;;;5049580;28;19955;-54
2022/08/19 05:59:15;;;;;;;;;;;20.30;99.90;;;;;;5050234;28;19912;-56
2022/08/19 06:01:43;;;;;;;;;;;20.30;99.90;;;;;;5056432;28;19917;-53
2022/08/19 06:04:08;;;;;;;;;;;20.40;99.90;;;;;;5052388;28;19915;-51
2022/08/19 06:06:35;;;;;;;;;;;20.30;99.90;;;;;;5050766;28;19913;-53
2022/08/19 06:09:01;;;;;;;;;;;20.20;99.90;;;;;;5051387;28;19916;-54
2022/08/19 06:12:02;;;;;;;;;;;20.20;99.90;;;;;;5051036;28;19917;-55
2022/08/19 06:14:30;;;;;;;;;;;20.30;99.90;;;;;;5011155;28;20082;-49
2022/08/19 06:16:56;;;;;;;;;;;20.40;99.90;;;;;;5044994;28;20398;-51
2022/08/19 06:19:24;;;;;;;;;;;20.40;99.90;;;;;;5051702;28;19916;-49
2022/08/19 06:21:50;;;;;;;;;;;20.40;99.90;;;;;;5051435;28;19915;-53
2022/08/19 06:24:17;;;;;;;;;;;20.50;99.90;;;;;;5050688;28;20410;-48
2022/08/19 06:26:44;;;;;;;;;;;20.70;99.90;;;;;;5051548;28;20371;-54
2022/08/19 06:29:11;;;;;;;;;;;20.70;99.90;;;;;;5050801;28;20036;-53
2022/08/19 06:31:38;;;;;;;;;;;20.80;99.90;;;;;;5050085;28;20282;-54
2022/08/19 06:34:04;;;;;;;;;;;20.60;99.90;;;;;;5051625;28;19916;-57
2022/08/19 06:36:33;;;;;;;;;;;20.70;99.90;;;;;;5051324;28;19917;-55
2022/08/19 06:39:06;;;;;;;;;;;20.70;99.90;;;;;;5052467;28;20435;-55
2022/08/19 06:41:35;;;;;;;;;;;20.70;99.90;;;;;;5051803;28;20327;-57
2022/08/19 06:44:00;;;;;;;;;;;20.80;99.90;;;;;;5051240;28;19921;-52
2022/08/19 06:46:26;;;;;;;;;;;20.70;99.90;;;;;;5051574;28;19920;-56
2022/08/19 06:48:53;;;;;;;;;;;20.60;99.90;;;;;;5052054;28;19968;-53
2022/08/19 06:51:18;;;;;;;;;;;20.60;99.90;;;;;;5051311;28;20296;-57
2022/08/19 06:53:46;;;;;;;;;;;20.60;99.90;;;;;;5052253;28;19929;-54
2022/08/19 06:56:14;;;;;;;;;;;20.60;99.90;;;;;;5051286;28;19920;-54
2022/08/19 06:58:39;;;;;;;;;;;20.60;99.90;;;;;;5052355;28;19919;-54
2022/08/19 07:01:05;;;;;;;;;;;20.60;99.90;;;;;;5051032;28;19961;-55
2022/08/19 07:03:32;;;;;;;;;;;20.70;99.90;;;;;;5051966;28;19916;-53
2022/08/19 07:06:02;;;;;;;;;;;20.70;99.90;;;;;;5050987;28;20351;-50
2022/08/19 07:08:27;;;;;;;;;;;20.70;99.90;;;;;;5050998;28;19909;-50
2022/08/19 07:10:53;;;;;;;;;;;20.80;99.90;;;;;;5052752;28;19983;-51
2022/08/19 07:13:19;;;;;;;;;;;20.90;99.90;;;;;;5054519;28;20335;-53
2022/08/19 07:15:46;;;;;;;;;;;20.80;99.90;;;;;;5054335;28;20316;-53
2022/08/19 07:18:11;;;;;;;;;;;20.80;99.90;;;;;;5053245;28;19913;-55
2022/08/19 07:20:38;;;;;;;;;;;20.60;99.90;;;;;;5055199;28;19920;-56
2022/08/19 07:23:04;;;;;;;;;;;20.60;99.90;;;;;;5053786;28;19963;-52
2022/08/19 07:25:29;;;;;;;;;;;20.70;99.90;;;;;;5054030;28;20384;-55
2022/08/19 07:27:55;;;;;;;;;;;20.40;99.90;;;;;;5054230;28;19951;-52
2022/08/19 07:30:22;;;;;;;;;;;20.50;99.90;;;;;;5049376;28;20024;-52
2022/08/19 07:32:48;;;;;;;;;;;20.30;99.90;;;;;;5045734;28;20013;-54
2022/08/19 07:35:13;;;;;;;;;;;20.40;99.90;;;;;;5053080;28;19952;-56
2022/08/19 07:37:43;;;;;;;;;;;20.40;99.90;;;;;;5048010;28;19917;-52
2022/08/19 07:40:09;;;;;;;;;;;20.50;99.90;;;;;;5048147;28;19913;-50
2022/08/19 07:42:36;;;;;;;;;;;20.60;99.90;;;;;;5057174;28;20388;-53
2022/08/19 07:45:02;;;;;;;;;;;20.60;99.90;;;;;;5057001;28;20381;-51
2022/08/19 07:47:28;;;;;;;;;;;20.60;99.90;;;;;;5057045;28;19913;-54
2022/08/19 07:49:53;;;;;;;;;;;20.60;99.90;;;;;;5056914;28;20452;-50
2022/08/19 07:52:19;;;;;;;;;;;20.60;99.90;;;;;;5054446;28;20349;-51
2022/08/19 07:54:45;;;;;;;;;;;20.70;99.90;;;;;;5054104;28;20003;-53
2022/08/19 07:57:11;;;;;;;;;;;20.70;99.90;;;;;;5051864;28;19963;-51
2022/08/19 07:59:36;;;;;;;;;;;20.60;99.90;;;;;;5053603;28;20431;-55
2022/08/19 08:02:02;;;;;;;;;;;20.60;99.90;;;;;;5053924;28;19909;-54
2022/08/19 08:09:57;;;;;;;;;;;20.50;99.90;;;;;;5053202;28;20015;-53
2022/08/19 08:12:28;;;;;;;;;;;20.60;99.90;;;;;;5053865;28;20391;-54
2022/08/19 08:14:58;;;;;;;;;;;20.50;99.90;;;;;;5052632;28;19975;-53
2022/08/19 08:17:25;;;;;;;;;;;20.50;99.90;;;;;;5068682;28;19916;-52
2022/08/19 08:19:51;;;;;;;;;;;20.50;99.90;;;;;;5053196;28;19921;-54
2022/08/19 08:25:22;;;;;;;;;;;20.60;99.90;;;;;;5054128;28;19909;-54
2022/08/19 08:27:49;;;;;;;;;;;20.60;99.90;;;;;;5060026;28;20325;-50
2022/08/19 08:30:21;;;;;;;;;;;20.50;99.90;;;;;;5053591;28;19951;-54
2022/08/19 08:32:47;;;;;;;;;;;20.50;99.90;;;;;;5052335;28;19931;-51
2022/08/19 08:35:16;;;;;;;;;;;20.40;99.90;;;;;;5053334;28;19913;-53
2022/08/19 08:37:43;;;;;;;;;;;20.60;99.90;;;;;;5052774;28;20307;-51
2022/08/19 08:40:13;;;;;;;;;;;20.60;99.90;;;;;;5053099;28;20273;-48
2022/08/19 08:42:43;;;;;;;;;;;20.50;99.90;;;;;;5053182;28;20003;-53
2022/08/19 08:45:15;;;;;;;;;;;20.50;99.90;;;;;;5039084;28;19996;-54
2022/08/19 08:47:43;;;;;;;;;;;20.60;99.90;;;;;;5051319;28;19987;-50
2022/08/19 08:50:14;;;;;;;;;;;20.60;99.90;;;;;;5052989;28;20384;-54
2022/08/19 08:52:42;;;;;;;;;;;20.60;99.90;;;;;;5052763;28;20381;-54
2022/08/19 08:55:14;;;;;;;;;;;20.60;99.90;;;;;;5050897;28;19924;-50
2022/08/19 08:57:50;;;;;;;;;;;20.60;99.90;;;;;;5052428;28;20006;-48
2022/08/19 09:00:31;;;;;;;;;;;20.60;99.90;;;;;;5052482;28;19913;-52
2022/08/19 09:02:57;;;;;;;;;;;20.60;99.90;;;;;;5052768;28;19935;-49
2022/08/19 09:05:25;;;;;;;;;;;20.40;99.90;;;;;;5052347;28;19913;-50
2022/08/19 09:08:02;;;;;;;;;;;20.30;99.90;;;;;;5051008;28;20369;-55
2022/08/19 09:10:27;;;;;;;;;;;20.40;99.90;;;;;;5052291;28;20377;-54
2022/08/19 09:12:56;;;;;;;;;;;20.50;99.90;;;;;;5052748;28;19909;-54
2022/08/19 09:15:40;;;;;;;;;;;20.60;99.90;;;;;;5052347;28;19920;-56
2022/08/19 09:18:08;;;;;;;;;;;20.60;99.90;;;;;;5041912;28;19909;-54
2022/08/19 09:20:33;;;;;;;;;;;20.60;99.90;;;;;;5049573;28;19924;-53
2022/08/19 09:22:59;;;;;;;;;;;20.30;99.90;;;;;;5051948;28;19912;-52
2022/08/19 09:25:25;;;;;;;;;;;20.30;99.90;;;;;;5051527;28;19921;-51
2022/08/19 09:27:53;;;;;;;;;;;20.20;99.90;;;;;;5050243;28;19924;-52
2022/08/19 09:30:24;;;;;;;;;;;20.40;99.90;;;;;;5052174;28;19920;-52
2022/08/19 09:32:52;;;;;;;;;;;20.40;99.90;;;;;;5051044;28;19959;-52
2022/08/19 09:35:18;;;;;;;;;;;20.40;99.90;;;;;;5038366;28;19913;-54
2022/08/19 09:37:43;;;;;;;;;;;20.30;99.90;;;;;;5045721;28;20318;-51
2022/08/19 09:40:09;;;;;;;;;;;20.40;99.90;;;;;;5050446;28;20021;-49
2022/08/19 09:42:35;;;;;;;;;;;20.30;99.90;;;;;;5051517;28;20384;-48
2022/08/19 09:45:02;;;;;;;;;;;20.30;99.90;;;;;;5052090;28;19952;-52
2022/08/19 09:47:28;;;;;;;;;;;20.40;99.90;;;;;;5051097;28;19967;-50
2022/08/19 09:49:54;;;;;;;;;;;20.50;99.90;;;;;;5051888;28;19913;-49
2022/08/19 09:52:20;;;;;;;;;;;20.50;99.90;;;;;;5051364;28;19917;-51
2022/08/19 09:54:45;;;;;;;;;;;20.50;99.90;;;;;;5051314;28;19924;-50
2022/08/19 09:57:11;;;;;;;;;;;20.40;99.90;;;;;;5050768;28;19924;-52
2022/08/19 09:59:38;;;;;;;;;;;20.20;99.90;;;;;;5051656;28;19913;-54
2022/08/19 10:02:03;;;;;;;;;;;20.20;99.90;;;;;;5051618;28;20004;-51
2022/08/19 10:07:14;;;;;;;;;;;20.20;99.90;;;;;;5050609;28;19917;-56
2022/08/19 10:09:40;;;;;;;;;;;20.20;99.90;;;;;;5049605;28;19912;-51
2022/08/19 10:12:06;;;;;;;;;;;20.20;99.90;;;;;;5051429;28;19955;-51
2022/08/19 10:14:32;;;;;;;;;;;20.30;99.90;;;;;;5051339;28;19923;-56
2022/08/19 10:16:59;;;;;;;;;;;20.50;99.90;;;;;;5050615;28;19939;-54
2022/08/19 10:19:25;;;;;;;;;;;20.50;99.90;;;;;;5037102;28;19967;-53
2022/08/19 10:21:50;;;;;;;;;;;20.50;99.90;;;;;;5047311;28;19925;-54
2022/08/19 10:24:16;;;;;;;;;;;20.60;99.90;;;;;;5051312;28;19917;-52
2022/08/19 10:26:44;;;;;;;;;;;20.60;99.90;;;;;;5035317;28;19921;-55
2022/08/19 10:29:11;;;;;;;;;;;20.70;99.90;;;;;;5034812;28;20295;-56
2022/08/19 10:31:37;;;;;;;;;;;20.60;99.90;;;;;;5051046;28;20335;-56
2022/08/19 10:34:02;;;;;;;;;;;20.70;99.90;;;;;;5050938;28;19917;-54
2022/08/19 10:36:34;;;;;;;;;;;20.70;99.90;;;;;;5050613;28;19916;-53
2022/08/19 10:39:01;;;;;;;;;;;20.80;99.90;;;;;;5051432;28;19919;-54
2022/08/19 10:41:29;;;;;;;;;;;20.80;99.90;;;;;;5031663;28;19964;-54
2022/08/19 10:43:56;;;;;;;;;;;20.60;99.90;;;;;;5040745;28;19982;-53
2022/08/19 10:46:23;;;;;;;;;;;20.80;99.90;;;;;;5054909;28;19958;-55
2022/08/19 10:48:49;;;;;;;;;;;20.90;99.90;;;;;;5054802;28;19912;-52
2022/08/19 10:53:59;;;;;;;;;;;21.20;99.90;;;;;;5054883;28;20012;-54
2022/08/19 10:59:09;;;;;;;;;;;21.30;99.90;;;;;;5056118;28;20305;-53
2022/08/19 11:01:35;;;;;;;;;;;21.20;99.90;;;;;;5056441;28;19913;-55
2022/08/19 11:04:02;;;;;;;;;;;21.30;99.90;;;;;;5055780;28;19928;-54
2022/08/19 11:06:27;;;;;;;;;;;21.30;99.90;;;;;;5054281;28;19917;-55
2022/08/19 11:08:54;;;;;;;;;;;21.50;99.90;;;;;;5054919;28;20433;-54
2022/08/19 11:11:20;;;;;;;;;;;21.60;99.90;;;;;;5054181;28;19958;-54
2022/08/19 11:13:46;;;;;;;;;;;21.50;99.90;;;;;;5054336;28;19909;-51
2022/08/19 11:16:14;;;;;;;;;;;21.60;99.90;;;;;;5054051;28;20269;-55
2022/08/19 11:18:42;;;;;;;;;;;21.50;99.90;;;;;;5054390;28;19920;-52
2022/08/19 11:21:18;;;;;;;;;;;21.60;99.90;;;;;;5053889;28;19917;-53
2022/08/19 11:23:45;;;;;;;;;;;21.80;99.90;;;;;;5054631;28;20365;-53
2022/08/19 11:26:10;;;;;;;;;;;21.90;99.90;;;;;;5053657;28;19924;-50
2022/08/19 11:28:36;;;;;;;;;;;21.90;99.90;;;;;;5053896;28;20292;-53
2022/08/19 11:31:03;;;;;;;;;;;21.90;99.90;;;;;;5053826;28;20392;-51
2022/08/19 11:33:29;;;;;;;;;;;21.80;99.90;;;;;;5054357;28;19944;-53
2022/08/19 11:35:56;;;;;;;;;;;21.70;99.90;;;;;;5053443;28;19917;-53
2022/08/19 11:38:22;;;;;;;;;;;21.60;99.90;;;;;;5053816;28;20069;-54
2022/08/19 11:40:54;;;;;;;;;;;21.50;99.90;;;;;;5053820;28;20027;-50
2022/08/19 11:43:20;;;;;;;;;;;21.50;99.90;;;;;;5054068;28;20007;-53
2022/08/19 11:45:47;;;;;;;;;;;21.80;99.90;;;;;;5051985;28;20015;-51
2022/08/19 11:48:13;;;;;;;;;;;22.10;99.90;;;;;;5053963;28;19920;-50
2022/08/19 11:50:42;;;;;;;;;;;22.30;99.90;;;;;;5054302;28;20307;-55
2022/08/19 11:53:07;;;;;;;;;;;22.30;99.90;;;;;;5053642;28;19920;-50
2022/08/19 11:55:36;;;;;;;;;;;22.50;99.90;;;;;;5053149;28;19917;-51
2022/08/19 11:58:01;;;;;;;;;;;22.50;99.90;;;;;;5053565;28;20007;-53
2022/08/19 12:00:27;;;;;;;;;;;22.50;99.90;;;;;;5054058;28;20008;-52
2022/08/19 12:02:52;;;;;;;;;;;22.60;99.90;;;;;;5053283;28;20011;-53
2022/08/19 12:05:18;;;;;;;;;;;22.80;99.90;;;;;;5053467;28;19943;-54
2022/08/19 12:07:43;;;;;;;;;;;22.70;99.90;;;;;;5053021;28;19920;-53
2022/08/19 12:10:09;;;;;;;;;;;22.70;99.90;;;;;;5053697;28;20376;-53
2022/08/19 12:12:35;;;;;;;;;;;22.60;99.90;;;;;;5053441;28;19909;-54
2022/08/19 12:15:00;;;;;;;;;;;22.50;99.90;;;;;;5052200;28;19920;-52
2022/08/19 12:17:26;;;;;;;;;;;22.30;99.90;;;;;;5052369;28;19921;-52
2022/08/19 12:19:52;;;;;;;;;;;22.30;99.90;;;;;;5053017;28;19967;-52
2022/08/19 12:22:18;;;;;;;;;;;22.40;99.90;;;;;;5050642;28;19986;-54
2022/08/19 12:24:43;;;;;;;;;;;22.30;99.90;;;;;;5048682;28;19943;-53
2022/08/19 12:27:09;;;;;;;;;;;22.20;99.90;;;;;;5040429;28;20296;-54
2022/08/19 12:29:34;;;;;;;;;;;22.20;99.90;;;;;;5053217;28;19966;-51
2022/08/19 12:32:01;;;;;;;;;;;22.30;99.90;;;;;;5053084;28;19935;-52
2022/08/19 12:34:29;;;;;;;;;;;22.40;99.90;;;;;;5052580;28;20003;-51
2022/08/19 12:36:58;;;;;;;;;;;22.40;99.90;;;;;;5052098;28;20019;-52
2022/08/19 12:39:25;;;;;;;;;;;22.60;99.90;;;;;;5052875;28;20012;-54
2022/08/19 12:41:51;;;;;;;;;;;22.60;99.90;;;;;;5052736;28;19971;-51
2022/08/19 12:44:17;;;;;;;;;;;22.90;99.90;;;;;;5052925;28;19959;-53
2022/08/19 12:46:42;;;;;;;;;;;23.00;99.90;;;;;;5051192;28;19951;-52
2022/08/19 12:49:08;;;;;;;;;;;23.10;99.90;;;;;;5052766;28;20384;-55
2022/08/19 12:51:33;;;;;;;;;;;22.80;99.90;;;;;;5049147;28;19916;-55
2022/08/19 12:53:59;;;;;;;;;;;22.50;99.90;;;;;;5037187;28;19921;-54
2022/08/19 12:56:24;;;;;;;;;;;22.60;99.90;;;;;;5041812;28;19917;-52
2022/08/19 12:58:50;;;;;;;;;;;22.40;99.90;;;;;;5032486;28;19924;-54
2022/08/19 13:01:16;;;;;;;;;;;22.40;99.90;;;;;;5035203;28;19917;-52
2022/08/19 13:03:42;;;;;;;;;;;22.20;99.90;;;;;;5032577;28;19909;-54
2022/08/19 13:06:09;;;;;;;;;;;22.50;99.90;;;;;;5046143;28;20377;-54
2022/08/19 13:08:35;;;;;;;;;;;22.40;99.90;;;;;;5048096;28;19914;-53
2022/08/19 13:11:11;;;;;;;;;;;22.60;99.90;;;;;;5044960;28;20070;-54
2022/08/19 13:13:40;;;;;;;;;;;22.50;99.90;;;;;;5051679;28;19978;-53
2022/08/19 13:16:07;;;;;;;;;;;22.50;99.90;;;;;;5048634;28;20043;-54
2022/08/19 13:18:32;;;;;;;;;;;22.50;99.90;;;;;;5051825;28;19909;-52
2022/08/19 13:21:03;;;;;;;;;;;22.70;99.90;;;;;;5051839;28;19909;-52
2022/08/19 13:23:28;;;;;;;;;;;22.70;99.90;;;;;;5052161;28;20258;-52
2022/08/19 13:25:57;;;;;;;;;;;22.60;99.90;;;;;;5051323;28;20496;-56
2022/08/19 13:28:23;;;;;;;;;;;22.70;99.90;;;;;;5051618;28;20016;-55
2022/08/19 13:33:33;;;;;;;;;;;22.80;99.90;;;;;;5051987;28;20133;-57
2022/08/19 13:36:00;;;;;;;;;;;22.80;99.90;;;;;;5051534;28;19945;-55
2022/08/19 13:38:26;;;;;;;;;;;22.80;99.90;;;;;;5051283;28;19916;-52
2022/08/19 13:40:52;;;;;;;;;;;22.90;99.90;;;;;;5051476;28;19919;-54
2022/08/19 13:43:21;;;;;;;;;;;22.80;99.90;;;;;;5051305;28;19913;-51
2022/08/19 13:45:47;;;;;;;;;;;22.70;99.90;;;;;;5051155;28;19924;-53
2022/08/19 13:48:12;;;;;;;;;;;22.70;99.90;;;;;;5050867;28;19912;-55
2022/08/19 13:50:41;;;;;;;;;;;22.70;99.90;;;;;;5051889;28;19909;-53
2022/08/19 13:53:07;;;;;;;;;;;22.80;99.90;;;;;;5047515;28;19913;-52
2022/08/19 13:55:33;;;;;;;;;;;23.00;99.90;;;;;;5030136;28;20004;-52
2022/08/19 13:58:01;;;;;;;;;;;23.00;99.80;;;;;;5042879;28;19912;-52
2022/08/19 14:00:31;;;;;;;;;;;23.00;99.90;;;;;;5042647;28;19959;-53
2022/08/19 14:02:57;;;;;;;;;;;23.00;99.90;;;;;;5040955;28;20373;-53
2022/08/19 14:05:24;;;;;;;;;;;22.90;99.90;;;;;;5049941;28;19920;-56
2022/08/19 14:07:50;;;;;;;;;;;22.90;99.90;;;;;;5049832;28;19959;-51
2022/08/19 14:10:16;;;;;;;;;;;22.90;99.90;;;;;;5050838;28;19913;-52
2022/08/19 14:12:41;;;;;;;;;;;22.90;99.90;;;;;;5051630;28;19917;-53
2022/08/19 14:15:08;;;;;;;;;;;22.80;99.90;;;;;;5052064;28;19909;-54
2022/08/19 14:17:37;;;;;;;;;;;22.80;99.90;;;;;;5037897;28;20007;-56
2022/08/19 14:20:07;;;;;;;;;;;22.60;99.90;;;;;;5030314;28;19924;-54
2022/08/19 14:22:33;;;;;;;;;;;22.50;99.90;;;;;;5050135;28;19917;-51
2022/08/19 14:24:59;;;;;;;;;;;22.30;99.90;;;;;;5052716;28;19908;-54
2022/08/19 14:27:25;;;;;;;;;;;22.20;99.90;;;;;;5051869;28;20281;-56
2022/08/19 14:29:51;;;;;;;;;;;22.20;99.90;;;;;;5052671;28;19978;-55
2022/08/19 14:32:16;;;;;;;;;;;22.10;99.90;;;;;;5049518;28;20004;-51
2022/08/19 14:40:48;;;;;;;;;;;22.20;99.90;;;;;;5039761;28;20011;-56
2022/08/19 14:43:14;;;;;;;;;;;22.10;99.90;;;;;;5050622;28;20281;-51
2022/08/19 14:45:40;;;;;;;;;;;22.10;99.90;;;;;;5042453;28;19920;-54
2022/08/19 14:48:06;;;;;;;;;;;22.10;99.90;;;;;;5040174;28;19917;-52